Time;durP1;ratioP1;P1;durP2;ratioP2;P2;SDS_P1;SDS_P2;PMS_P1;PMS_P2;Temp;Humidity;BMP_temperature;BMP_pressure;BME280_temperature;BME280_humidity;BME280_pressure;Samples;Min_cycle;Max_cycle;Signal;HPM_P1;HPM_P2
2022/08/21 00:01:40;;;;;;;13.00;11.70;;;;;;;24.45;54.29;99879.39;117287;1182;23445;-66
2022/08/21 00:04:07;;;;;;;13.20;12.00;;;;;;;24.43;54.27;99880.29;117386;1182;21953;-59
2022/08/21 00:06:36;;;;;;;14.60;13.00;;;;;;;24.40;54.45;99888.73;117288;1186;23446;-66
2022/08/21 00:09:04;;;;;;;16.30;12.50;;;;;;;24.38;54.43;99890.33;117289;1182;23544;-60
2022/08/21 00:11:36;;;;;;;14.30;12.80;;;;;;;24.35;54.37;99886.80;117334;1183;22921;-59
2022/08/21 00:14:04;;;;;;;13.60;12.30;;;;;;;24.30;54.48;99883.73;117337;1182;24159;-66
2022/08/21 00:16:31;;;;;;;13.60;12.20;;;;;;;24.24;54.76;99886.92;117430;1182;22998;-66
2022/08/21 00:18:58;;;;;;;13.40;12.00;;;;;;;24.19;54.72;99891.81;117275;1183;23544;-67
2022/08/21 00:21:25;;;;;;;13.70;11.90;;;;;;;24.15;54.74;99891.38;117226;1186;23641;-66
2022/08/21 00:23:52;;;;;;;13.80;12.30;;;;;;;24.13;54.82;99895.63;117183;1186;23645;-67
2022/08/21 00:26:19;;;;;;;13.10;11.90;;;;;;;24.18;54.62;99901.55;117290;1183;21963;-66
2022/08/21 00:28:48;;;;;;;13.70;12.50;;;;;;;24.12;54.78;99901.08;117355;1181;24175;-66
2022/08/21 00:31:16;;;;;;;13.00;11.80;;;;;;;24.04;55.02;99898.08;117385;1182;22927;-66
2022/08/21 00:33:43;;;;;;;13.90;12.30;;;;;;;23.98;55.08;99896.75;117347;1182;22908;-66
2022/08/21 00:36:11;;;;;;;13.80;12.40;;;;;;;23.95;55.29;99900.73;117334;1182;22925;-66
2022/08/21 00:38:38;;;;;;;13.80;12.50;;;;;;;23.91;55.34;99909.40;117296;1182;22621;-59
2022/08/21 00:41:06;;;;;;;14.30;12.70;;;;;;;23.98;55.11;99914.64;117265;1185;21855;-59
2022/08/21 00:43:53;;;;;;;13.20;11.90;;;;;;;24.04;55.00;99921.59;117234;1184;21862;-60
2022/08/21 00:46:20;;;;;;;14.00;12.60;;;;;;;24.06;54.92;99926.23;118468;1185;21864;-60
2022/08/21 00:48:54;;;;;;;13.90;12.20;;;;;;;24.04;55.06;99919.76;117337;1186;21857;-59
2022/08/21 00:51:47;;;;;;;14.20;12.70;;;;;;;24.03;55.14;99919.30;117029;1183;23571;-67
2022/08/21 00:54:15;;;;;;;15.20;13.50;;;;;;;24.02;55.14;99916.52;116970;1185;23305;-67
2022/08/21 00:56:54;;;;;;;14.90;13.00;;;;;;;24.04;55.21;99909.04;117230;1186;23451;-66
2022/08/21 00:59:21;;;;;;;14.80;13.30;;;;;;;23.95;55.31;99905.04;117010;1187;24339;-67
2022/08/21 01:01:49;;;;;;;14.40;13.10;;;;;;;23.93;55.36;99906.45;117319;1183;22545;-67
2022/08/21 01:04:16;;;;;;;14.40;12.90;;;;;;;23.92;55.39;99904.87;117342;1185;23557;-59
2022/08/21 01:06:44;;;;;;;15.50;13.90;;;;;;;23.90;55.59;99908.11;117269;1185;23557;-59
2022/08/21 01:09:12;;;;;;;14.70;13.00;;;;;;;23.92;55.50;99907.75;117386;1184;22925;-67
2022/08/21 01:11:39;;;;;;;15.70;14.20;;;;;;;23.94;55.47;99909.59;117440;1185;22985;-66
2022/08/21 01:14:06;;;;;;;16.20;14.50;;;;;;;23.88;55.56;99905.70;117139;1186;21842;-65
2022/08/21 01:16:33;;;;;;;16.10;14.50;;;;;;;23.84;55.90;99903.91;117228;1185;22806;-60
2022/08/21 01:19:00;;;;;;;16.40;14.80;;;;;;;23.81;55.99;99901.65;117391;1182;23654;-66
2022/08/21 01:21:27;;;;;;;15.00;13.50;;;;;;;23.80;56.08;99898.30;117083;1184;22954;-60
2022/08/21 01:23:55;;;;;;;15.60;14.00;;;;;;;23.79;56.08;99893.16;117346;1185;21883;-59
2022/08/21 01:26:24;;;;;;;14.90;13.50;;;;;;;23.77;56.10;99890.27;117417;1181;21915;-66
2022/08/21 01:29:01;;;;;;;15.20;13.60;;;;;;;23.81;55.97;99889.27;117102;1188;22905;-67
2022/08/21 01:31:28;;;;;;;15.80;14.30;;;;;;;23.82;55.84;99891.13;117328;1186;24019;-59
2022/08/21 01:33:56;;;;;;;14.90;13.50;;;;;;;23.77;55.98;99891.35;117338;1185;22913;-67
2022/08/21 01:36:23;;;;;;;15.50;13.90;;;;;;;23.82;55.85;99893.99;117315;1184;21963;-67
2022/08/21 01:38:50;;;;;;;15.80;14.10;;;;;;;23.81;55.88;99895.88;117361;1182;23449;-60
2022/08/21 01:41:17;;;;;;;15.70;14.20;;;;;;;23.77;55.99;99898.34;117303;1185;22332;-59
2022/08/21 01:43:44;;;;;;;15.20;13.70;;;;;;;23.75;56.10;99895.60;117366;1187;22921;-66
2022/08/21 01:46:12;;;;;;;19.60;15.10;;;;;;;23.73;56.25;99893.92;117483;1182;22948;-67
2022/08/21 01:48:39;;;;;;;16.30;14.20;;;;;;;23.71;56.30;99890.32;117352;1182;22925;-59
2022/08/21 01:51:06;;;;;;;16.70;15.10;;;;;;;23.67;56.35;99888.27;117340;1186;21892;-59
2022/08/21 01:53:35;;;;;;;16.30;14.70;;;;;;;23.64;56.42;99889.46;117302;1182;22921;-60
2022/08/21 01:56:04;;;;;;;16.00;14.40;;;;;;;23.62;56.38;99880.27;117354;1184;23075;-67
2022/08/21 01:58:37;;;;;;;16.00;13.50;;;;;;;23.66;56.12;99882.29;118261;1182;22807;-59
2022/08/21 02:01:05;;;;;;;16.20;14.30;;;;;;;23.67;56.30;99881.91;117393;1185;22941;-59
2022/08/21 02:03:32;;;;;;;16.40;14.90;;;;;;;23.60;56.43;99878.77;117370;1184;23734;-67
2022/08/21 02:06:06;;;;;;;16.40;14.80;;;;;;;23.60;56.46;99880.55;118270;1182;21857;-67
2022/08/21 02:08:33;;;;;;;17.40;15.70;;;;;;;23.63;56.28;99881.84;117384;1182;21855;-67
2022/08/21 02:11:01;;;;;;;16.20;14.60;;;;;;;23.63;56.37;99879.34;117495;1184;22938;-59
2022/08/21 02:13:28;;;;;;;17.00;14.50;;;;;;;23.59;56.48;99883.19;117399;1182;22622;-66
2022/08/21 02:15:55;;;;;;;17.20;15.60;;;;;;;23.48;56.77;99886.67;117396;1185;24232;-59
2022/08/21 02:18:23;;;;;;;16.60;14.50;;;;;;;23.40;56.97;99895.65;117337;1182;23580;-66
2022/08/21 02:20:50;;;;;;;16.50;14.80;;;;;;;23.41;56.95;99897.04;117326;1182;21867;-59
2022/08/21 02:23:23;;;;;;;17.00;15.30;;;;;;;23.53;56.86;99895.98;117371;1185;21875;-66
2022/08/21 02:26:04;;;;;;;19.80;16.10;;;;;;;23.50;56.82;99892.94;117395;1185;21857;-66
2022/08/21 02:28:31;;;;;;;20.90;16.70;;;;;;;23.42;57.01;99895.33;117296;1185;22985;-59
2022/08/21 02:30:58;;;;;;;17.50;15.60;;;;;;;23.41;57.05;99900.98;117166;1186;23358;-59
2022/08/21 02:33:25;;;;;;;18.00;16.10;;;;;;;23.42;57.08;99900.75;117289;1182;23724;-59
2022/08/21 02:35:53;;;;;;;17.70;16.00;;;;;;;23.42;57.00;99896.42;117361;1184;22945;-59
2022/08/21 02:38:33;;;;;;;17.10;15.40;;;;;;;23.42;57.09;99891.63;117384;1186;23636;-66
2022/08/21 02:41:00;;;;;;;17.40;15.50;;;;;;;23.41;57.09;99898.96;117334;1185;21857;-58
2022/08/21 02:43:27;;;;;;;18.60;16.70;;;;;;;23.42;57.16;99901.61;117433;1182;21940;-59
2022/08/21 02:45:55;;;;;;;18.10;16.20;;;;;;;23.42;57.06;99901.80;117323;1182;22973;-58
2022/08/21 02:48:24;;;;;;;17.90;15.80;;;;;;;23.40;57.26;99901.60;117339;1183;22994;-58
2022/08/21 02:50:53;;;;;;;18.40;16.50;;;;;;;23.32;57.29;99902.55;117344;1184;22258;-66
2022/08/21 02:53:20;;;;;;;20.00;16.20;;;;;;;23.25;57.69;99907.66;117275;1185;21899;-66
2022/08/21 02:55:48;;;;;;;18.80;17.00;;;;;;;23.26;57.49;99906.17;117290;1180;22942;-66
2022/08/21 02:58:17;;;;;;;19.00;16.90;;;;;;;23.25;57.64;99902.31;117294;1183;22819;-66
2022/08/21 03:00:44;;;;;;;18.30;16.50;;;;;;;23.21;57.76;99897.58;117231;1184;22915;-59
2022/08/21 03:03:12;;;;;;;18.70;16.80;;;;;;;23.21;57.77;99898.52;117339;1183;23551;-66
2022/08/21 03:05:39;;;;;;;18.50;16.70;;;;;;;23.21;57.78;99899.39;117292;1183;22925;-59
2022/08/21 03:08:10;;;;;;;19.10;17.20;;;;;;;23.20;57.79;99896.38;117332;1186;21892;-59
2022/08/21 03:10:39;;;;;;;18.30;16.50;;;;;;;23.21;57.80;99899.58;117350;1186;23616;-58
2022/08/21 03:13:07;;;;;;;19.30;17.40;;;;;;;23.20;57.95;99898.35;117333;1186;23015;-65
2022/08/21 03:15:34;;;;;;;19.20;17.30;;;;;;;23.17;58.00;99900.17;117344;1183;21858;-64
2022/08/21 03:18:01;;;;;;;19.20;17.30;;;;;;;23.17;58.18;99903.40;117334;1182;23456;-66
2022/08/21 03:20:28;;;;;;;19.30;17.20;;;;;;;23.18;58.06;99899.35;117347;1184;21863;-66
2022/08/21 03:22:55;;;;;;;17.30;15.70;;;;;;;23.17;58.02;99903.02;117540;1186;22924;-66
2022/08/21 03:25:24;;;;;;;21.10;18.10;;;;;;;23.16;58.13;99908.99;117336;1186;22909;-65
2022/08/21 03:28:11;;;;;;;19.50;17.70;;;;;;;23.18;58.15;99905.85;117333;1186;24696;-59
2022/08/21 03:30:41;;;;;;;20.20;18.10;;;;;;;23.18;58.22;99904.19;117340;1186;22926;-59
2022/08/21 03:33:08;;;;;;;19.10;17.10;;;;;;;23.18;58.15;99902.80;117554;1183;22924;-60
2022/08/21 03:35:40;;;;;;;20.70;18.80;;;;;;;23.16;58.31;99908.33;117335;1185;22915;-60
2022/08/21 03:38:08;;;;;;;21.10;18.70;;;;;;;23.13;58.22;99907.23;117459;1182;22994;-61
2022/08/21 03:40:37;;;;;;;21.40;18.70;;;;;;;23.12;58.40;99905.17;117408;1185;21877;-67
2022/08/21 03:43:04;;;;;;;20.70;18.70;;;;;;;23.14;58.43;99905.24;117142;1186;21858;-60
2022/08/21 03:45:32;;;;;;;21.50;18.10;;;;;;;23.16;58.59;99905.47;118043;1187;21858;-65
2022/08/21 03:48:01;;;;;;;21.20;19.00;;;;;;;23.19;58.81;99910.98;117381;1182;23546;-59
2022/08/21 03:50:30;;;;;;;20.30;18.20;;;;;;;23.25;58.79;99916.67;117057;1187;21876;-59
2022/08/21 03:52:57;;;;;;;23.60;19.90;;;;;;;23.32;58.81;99914.18;117381;1184;22963;-64
2022/08/21 03:55:26;;;;;;;21.00;18.90;;;;;;;23.39;58.96;99916.70;117313;1186;21943;-65
2022/08/21 03:57:53;;;;;;;21.20;19.00;;;;;;;23.45;58.93;99915.02;117299;1186;23723;-66
2022/08/21 04:00:20;;;;;;;21.20;19.00;;;;;;;23.52;58.94;99908.21;117340;1181;22915;-65
2022/08/21 04:02:47;;;;;;;21.80;19.80;;;;;;;23.59;59.04;99910.59;117384;1183;22618;-59
2022/08/21 04:05:26;;;;;;;21.60;18.90;;;;;;;23.65;59.03;99911.34;117362;1185;23595;-59
2022/08/21 04:08:02;;;;;;;21.30;19.10;;;;;;;23.74;59.08;99918.98;117267;1184;21855;-59
2022/08/21 04:10:31;;;;;;;21.70;19.70;;;;;;;23.81;59.02;99922.38;117424;1185;22921;-58
2022/08/21 04:12:57;;;;;;;21.50;19.20;;;;;;;23.89;59.14;99920.89;117371;1182;23005;-59
2022/08/21 04:15:25;;;;;;;22.60;20.20;;;;;;;23.95;59.13;99918.27;117164;1189;21881;-59
2022/08/21 04:17:53;;;;;;;22.10;19.40;;;;;;;24.02;59.06;99918.17;117508;1186;23560;-59
2022/08/21 04:20:21;;;;;;;25.50;21.50;;;;;;;24.09;59.10;99917.85;117428;1182;24181;-66
2022/08/21 04:22:50;;;;;;;24.80;20.50;;;;;;;24.15;59.20;99912.86;117377;1182;24158;-66
2022/08/21 04:25:18;;;;;;;24.70;22.00;;;;;;;24.21;59.35;99912.98;117384;1185;23560;-59
2022/08/21 04:27:45;;;;;;;25.70;20.80;;;;;;;24.26;59.21;99908.59;117396;1182;23557;-66
2022/08/21 04:30:13;;;;;;;23.20;20.90;;;;;;;24.32;59.33;99904.55;117287;1186;23563;-66
2022/08/21 04:32:43;;;;;;;25.20;22.40;;;;;;;24.38;59.36;99901.40;117326;1185;21861;-59
2022/08/21 04:35:11;;;;;;;27.70;22.00;;;;;;;24.45;59.30;99906.63;117370;1185;22651;-66
2022/08/21 04:37:38;;;;;;;26.30;22.20;;;;;;;24.51;59.22;99911.73;117188;1183;23456;-59
2022/08/21 04:40:09;;;;;;;28.60;24.20;;;;;;;24.57;59.38;99914.98;117342;1185;21963;-65
2022/08/21 04:42:49;;;;;;;30.70;23.50;;;;;;;24.63;59.29;99911.31;117340;1186;23542;-66
2022/08/21 04:45:27;;;;;;;25.20;22.20;;;;;;;24.69;59.31;99908.32;117426;1183;21853;-59
2022/08/21 04:47:56;;;;;;;31.30;23.30;;;;;;;24.78;59.21;99908.36;117523;1183;23448;-66
2022/08/21 04:50:29;;;;;;;29.00;24.10;;;;;;;24.84;59.30;99906.11;117452;1185;21926;-59
2022/08/21 04:52:56;;;;;;;29.90;22.40;;;;;;;24.88;59.26;99905.63;117264;1182;23567;-59
2022/08/21 04:55:24;;;;;;;31.40;23.80;;;;;;;24.93;59.28;99906.85;117321;1182;21982;-66
2022/08/21 04:57:53;;;;;;;27.90;23.00;;;;;;;24.98;59.15;99907.67;117308;1185;22622;-59
2022/08/21 05:00:20;;;;;;;30.30;23.70;;;;;;;25.05;59.14;99908.60;117712;1186;22921;-67
2022/08/21 05:02:47;;;;;;;28.30;23.40;;;;;;;25.10;59.28;99909.41;117521;1185;23567;-66
2022/08/21 05:05:15;;;;;;;26.60;22.10;;;;;;;25.12;59.16;99912.90;119479;1182;21791;-66
2022/08/21 05:07:43;;;;;;;24.20;20.40;;;;;;;25.18;59.12;99913.41;119510;1180;21827;-60
2022/08/21 05:10:10;;;;;;;25.80;21.20;;;;;;;25.27;59.22;99914.38;117843;1187;21904;-59
2022/08/21 05:12:41;;;;;;;22.90;20.30;;;;;;;25.33;59.28;99917.46;117389;1182;22864;-61
2022/08/21 05:15:11;;;;;;;28.20;20.50;;;;;;;25.42;59.43;99920.73;117352;1186;23084;-60
2022/08/21 05:17:40;;;;;;;26.60;23.20;;;;;;;25.51;59.32;99923.17;117408;1183;21858;-60
2022/08/21 05:20:09;;;;;;;26.90;22.90;;;;;;;25.62;59.43;99923.58;117327;1182;22829;-59
2022/08/21 05:22:36;;;;;;;26.40;23.00;;;;;;;25.72;59.36;99920.95;117180;1186;21866;-67
2022/08/21 05:25:04;;;;;;;29.20;21.90;;;;;;;25.80;59.35;99922.44;117302;1184;23813;-66
2022/08/21 05:27:38;;;;;;;26.60;22.70;;;;;;;25.90;59.28;99921.43;117117;1187;23468;-59
2022/08/21 05:30:09;;;;;;;30.90;22.40;;;;;;;25.98;59.28;99920.17;117154;1186;23046;-66
2022/08/21 05:32:36;;;;;;;25.80;22.10;;;;;;;26.05;59.25;99920.50;117239;1183;21873;-67
2022/08/21 05:35:04;;;;;;;29.30;23.90;;;;;;;26.09;59.14;99921.10;117046;1187;21899;-67
2022/08/21 05:37:32;;;;;;;29.00;23.80;;;;;;;26.12;59.32;99924.96;117415;1181;23625;-67
2022/08/21 05:39:59;;;;;;;29.10;21.40;;;;;;;26.18;59.26;99926.51;117318;1183;21946;-67
2022/08/21 05:42:48;;;;;;;30.60;22.30;;;;;;;26.28;59.40;99923.13;117047;1186;21888;-60
2022/08/21 05:45:27;;;;;;;25.10;22.40;;;;;;;26.38;59.42;99921.92;117249;1184;22948;-67
2022/08/21 05:48:20;;;;;;;30.10;23.40;;;;;;;26.48;59.39;99920.69;117359;1185;23580;-67
2022/08/21 05:50:47;;;;;;;28.40;22.90;;;;;;;26.60;59.30;99924.83;117357;1182;22953;-67
2022/08/21 05:53:14;;;;;;;27.50;23.50;;;;;;;26.71;59.33;99928.77;117006;1187;21854;-60
2022/08/21 05:55:42;;;;;;;27.50;21.90;;;;;;;26.78;59.28;99925.23;117376;1182;22625;-60
2022/08/21 05:58:13;;;;;;;24.70;21.40;;;;;;;26.86;59.38;99926.41;117371;1185;21914;-60
2022/08/21 06:00:41;;;;;;;31.80;23.50;;;;;;;27.03;59.12;99933.38;117129;1187;21891;-60
2022/08/21 06:03:15;;;;;;;26.10;20.30;;;;;;;27.12;58.95;99930.73;117293;1185;21905;-66
2022/08/21 06:05:42;;;;;;;25.40;22.20;;;;;;;27.25;58.75;99934.48;118014;1182;24312;-66
2022/08/21 06:08:08;;;;;;;24.40;20.20;;;;;;;27.36;58.54;99937.66;118264;1184;21855;-65
2022/08/21 06:10:35;;;;;;;26.50;21.40;;;;;;;27.54;58.42;99943.98;117251;1185;22544;-66
2022/08/21 06:13:03;;;;;;;31.50;23.30;;;;;;;27.67;58.22;99942.98;117217;1184;24158;-66
2022/08/21 06:15:29;;;;;;;26.80;21.30;;;;;;;27.78;58.12;99938.46;117075;1184;23645;-60
2022/08/21 06:17:56;;;;;;;27.70;21.60;;;;;;;27.84;57.93;99940.75;117373;1185;23629;-60
2022/08/21 06:20:23;;;;;;;32.70;23.00;;;;;;;27.91;57.87;99942.13;117334;1185;23550;-65
2022/08/21 06:22:50;;;;;;;30.00;23.20;;;;;;;27.94;57.78;99942.02;117375;1183;22919;-60
2022/08/21 06:25:18;;;;;;;31.20;22.90;;;;;;;27.91;58.08;99940.63;117369;1185;21858;-66
2022/08/21 06:27:46;;;;;;;29.40;21.50;;;;;;;27.95;58.01;99941.90;117352;1184;22929;-66
2022/08/21 06:30:13;;;;;;;30.20;22.20;;;;;;;28.02;57.83;99941.24;117384;1183;23678;-59
2022/08/21 06:32:40;;;;;;;33.60;24.70;;;;;;;28.10;57.72;99942.50;118117;1185;21876;-66
2022/08/21 06:35:07;;;;;;;30.30;21.60;;;;;;;28.20;57.79;99938.92;117064;1187;21922;-66
2022/08/21 06:37:34;;;;;;;34.00;22.40;;;;;;;28.31;57.71;99938.58;118127;1185;23580;-61
2022/08/21 06:40:04;;;;;;;31.50;22.00;;;;;;;28.46;57.73;99935.44;117091;1186;21900;-61
2022/08/21 06:42:38;;;;;;;28.40;21.00;;;;;;;28.58;57.68;99935.02;117282;1185;21846;-66
2022/08/21 06:45:09;;;;;;;28.10;20.60;;;;;;;28.71;57.64;99934.63;117514;1182;21921;-60
2022/08/21 06:47:36;;;;;;;26.50;21.30;;;;;;;28.85;57.66;99931.70;117430;1185;24161;-60
2022/08/21 06:50:04;;;;;;;25.40;20.70;;;;;;;29.02;57.47;99929.19;117439;1185;22921;-66
2022/08/21 06:52:31;;;;;;;27.40;21.30;;;;;;;29.20;57.49;99926.56;117264;1188;23538;-66
2022/08/21 06:54:59;;;;;;;29.10;19.80;;;;;;;29.38;57.28;99929.89;117367;1187;23612;-66
2022/08/21 06:57:26;;;;;;;23.50;19.60;;;;;;;29.57;57.40;99927.13;117456;1186;21844;-60
2022/08/21 06:59:54;;;;;;;28.60;19.40;;;;;;;29.74;57.43;99924.52;117426;1182;22728;-65
2022/08/21 07:02:22;;;;;;;24.00;18.80;;;;;;;29.93;57.23;99918.23;117474;1185;21855;-60
2022/08/21 07:04:49;;;;;;;23.50;20.10;;;;;;;30.15;57.19;99918.20;117035;1183;22694;-60
2022/08/21 07:07:16;;;;;;;20.40;17.40;;;;;;;30.42;57.17;99917.65;116934;1187;22071;-60
2022/08/21 07:09:43;;;;;;;24.40;17.70;;;;;;;30.69;57.12;99920.80;117221;1186;21915;-60
2022/08/21 07:12:10;;;;;;;20.50;16.50;;;;;;;30.88;56.92;99923.73;117258;1183;21854;-60
2022/08/21 07:14:38;;;;;;;22.40;17.60;;;;;;;31.02;56.69;99921.77;117305;1186;21881;-60
2022/08/21 07:17:04;;;;;;;20.60;16.50;;;;;;;31.01;56.89;99925.30;117821;1185;21861;-66
2022/08/21 07:19:31;;;;;;;16.80;15.00;;;;;;;31.11;56.86;99920.80;117252;1181;22925;-66
2022/08/21 07:22:00;;;;;;;18.50;15.80;;;;;;;31.24;56.68;99916.70;117057;1183;22613;-67
2022/08/21 07:24:28;;;;;;;24.70;17.20;;;;;;;31.36;56.51;99914.55;117663;1184;23624;-66
2022/08/21 07:26:54;;;;;;;18.00;15.50;;;;;;;31.42;56.23;99912.77;117089;1184;21848;-67
2022/08/21 07:29:21;;;;;;;18.40;14.70;;;;;;;31.48;56.09;99917.64;117125;1182;21860;-60
2022/08/21 07:31:48;;;;;;;16.90;14.10;;;;;;;31.54;56.22;99914.25;116955;1182;22326;-65
2022/08/21 07:34:16;;;;;;;15.30;13.70;;;;;;;31.67;55.98;99908.33;119357;1186;21686;-60
2022/08/21 07:36:43;;;;;;;17.30;13.50;;;;;;;31.88;56.07;99908.95;118778;1186;21974;-60
2022/08/21 07:39:10;;;;;;;15.70;13.00;;;;;;;32.14;56.00;99906.41;117235;1186;24160;-60
2022/08/21 07:41:37;;;;;;;15.40;12.00;;;;;;;32.34;55.77;99900.55;117298;1180;23630;-59
2022/08/21 07:44:04;;;;;;;16.70;11.60;;;;;;;32.53;55.47;99894.90;117026;1185;23677;-60
2022/08/21 07:46:32;;;;;;;16.40;11.50;;;;;;;32.67;55.16;99897.31;117269;1185;21944;-60
2022/08/21 07:48:59;;;;;;;18.80;12.10;;;;;;;32.79;55.08;99893.73;117075;1186;21926;-60
2022/08/21 07:51:27;;;;;;;16.00;12.20;;;;;;;32.89;54.91;99890.23;117063;1188;22822;-60
2022/08/21 07:53:57;;;;;;;12.30;11.00;;;;;;;33.01;53.74;99884.70;117056;1185;21868;-60
2022/08/21 07:56:24;;;;;;;14.90;10.60;;;;;;;33.04;53.42;99882.75;117333;1183;23453;-60
2022/08/21 07:58:51;;;;;;;15.70;10.60;;;;;;;33.10;54.07;99882.48;117277;1186;21857;-61
2022/08/21 08:01:19;;;;;;;18.20;11.40;;;;;;;33.36;54.28;99880.90;117083;1187;21857;-60
2022/08/21 08:03:47;;;;;;;14.00;10.90;;;;;;;33.63;53.96;99877.40;117030;1187;24262;-61
2022/08/21 08:06:16;;;;;;;23.20;11.10;;;;;;;33.83;53.70;99874.09;117346;1186;21854;-61
2022/08/21 08:08:43;;;;;;;12.20;10.50;;;;;;;33.98;53.50;99876.21;117300;1182;21855;-60
2022/08/21 08:11:10;;;;;;;24.20;10.70;;;;;;;34.06;53.05;99875.43;117246;1180;23044;-61
2022/08/21 08:13:40;;;;;;;13.10;9.60;;;;;;;34.13;52.96;99877.52;117040;1187;21915;-60
2022/08/21 08:16:07;;;;;;;14.50;10.30;;;;;;;34.33;53.05;99877.83;117330;1186;21906;-60
2022/08/21 08:18:34;;;;;;;19.00;9.80;;;;;;;34.64;52.99;99877.58;117291;1186;21922;-60
2022/08/21 08:21:01;;;;;;;11.00;8.80;;;;;;;35.00;52.81;99877.91;117251;1185;21864;-61
2022/08/21 08:23:30;;;;;;;12.70;9.20;;;;;;;35.44;52.38;99882.64;117247;1185;21849;-61
2022/08/21 08:25:59;;;;;;;13.00;8.50;;;;;;;35.96;52.29;99879.96;117320;1180;22945;-60
2022/08/21 08:28:27;;;;;;;13.60;9.00;;;;;;;36.35;51.60;99875.55;117255;1186;23530;-60
2022/08/21 08:30:54;;;;;;;10.70;8.10;;;;;;;36.63;51.13;99875.52;117278;1186;21860;-62
2022/08/21 08:33:21;;;;;;;11.70;8.00;;;;;;;36.84;50.60;99871.98;117196;1186;21848;-61
2022/08/21 08:35:49;;;;;;;10.70;8.40;;;;;;;37.03;50.57;99863.98;117315;1185;23452;-61
2022/08/21 08:38:18;;;;;;;11.90;8.60;;;;;;;37.24;50.31;99864.11;117324;1185;21842;-61
2022/08/21 08:41:17;;;;;;;13.30;7.70;;;;;;;37.34;49.57;99864.55;117284;1186;21865;-61
2022/08/21 08:43:54;;;;;;;14.50;8.30;;;;;;;37.26;49.16;99869.25;117236;1186;22442;-61
2022/08/21 08:46:45;;;;;;;15.20;8.30;;;;;;;37.05;49.01;99872.40;117284;1182;22946;-67
2022/08/21 08:49:40;;;;;;;10.10;7.70;;;;;;;36.78;48.87;99862.30;117088;1188;22635;-67
2022/08/21 08:52:18;;;;;;;13.30;7.80;;;;;;;36.42;48.70;99863.40;117382;1185;21900;-61
2022/08/21 08:54:55;;;;;;;13.70;7.60;;;;;;;36.12;48.79;99873.02;117088;1185;22944;-61
2022/08/21 08:57:23;;;;;;;11.00;7.30;;;;;;;35.85;48.89;99870.76;117294;1186;21854;-62
2022/08/21 08:59:55;;;;;;;11.60;7.30;;;;;;;35.56;48.81;99862.16;117108;1188;23651;-67
2022/08/21 09:02:27;;;;;;;9.70;6.60;;;;;;;35.26;49.10;99860.40;119115;1186;21773;-68
2022/08/21 09:04:54;;;;;;;8.30;7.40;;;;;;;35.00;49.53;99866.37;119391;1185;21706;-60
2022/08/21 09:07:52;;;;;;;8.90;7.50;;;;;;;34.72;49.62;99866.41;119194;1186;21772;-66
2022/08/21 09:10:23;;;;;;;8.30;7.10;;;;;;;34.31;49.56;99858.01;119143;1186;21710;-65
2022/08/21 09:12:59;;;;;;;13.80;7.50;;;;;;;33.91;49.98;99859.91;117598;1185;21859;-59
2022/08/21 09:16:03;;;;;;;10.00;7.70;;;;;;;33.67;50.10;99864.67;117294;1186;21858;-64
2022/08/21 09:18:43;;;;;;;9.10;5.70;;;;;;;33.37;49.77;99867.27;117299;1188;21895;-61
2022/08/21 09:21:16;;;;;;;10.00;6.20;;;;;;;32.83;49.30;99871.89;117237;1185;22648;-61
2022/08/21 09:24:10;;;;;;;6.40;5.70;;;;;;;32.34;49.90;99886.49;117131;1185;21852;-68
2022/08/21 09:26:50;;;;;;;13.10;6.70;;;;;;;31.88;49.97;99897.67;117151;1186;22929;-67
2022/08/21 09:29:18;;;;;;;12.80;7.40;;;;;;;31.51;50.57;99901.48;117144;1185;21950;-60
2022/08/21 09:31:45;;;;;;;10.40;7.00;;;;;;;31.29;50.86;99896.65;117367;1183;23569;-64
2022/08/21 09:34:13;;;;;;;10.80;6.60;;;;;;;31.12;51.30;99886.94;117399;1185;22724;-61
2022/08/21 09:36:43;;;;;;;8.10;6.00;;;;;;;31.03;51.48;99886.64;117201;1183;22925;-61
2022/08/21 09:39:11;;;;;;;9.90;6.50;;;;;;;30.95;51.61;99885.38;117350;1185;22961;-61
2022/08/21 09:41:39;;;;;;;11.60;6.50;;;;;;;30.83;51.59;99878.03;117410;1185;22400;-67
2022/08/21 09:44:07;;;;;;;9.10;5.70;;;;;;;30.73;51.48;99863.34;117404;1185;21874;-64
2022/08/21 09:46:35;;;;;;;7.40;6.00;;;;;;;30.59;51.49;99852.89;117347;1182;24181;-68
2022/08/21 09:49:03;;;;;;;8.10;5.40;;;;;;;30.48;51.92;99848.41;117179;1182;21902;-61
2022/08/21 09:51:34;;;;;;;8.50;6.20;;;;;;;30.50;52.22;99847.98;117301;1187;22991;-61
2022/08/21 09:54:04;;;;;;;8.70;6.80;;;;;;;30.60;52.30;99841.74;117305;1186;23002;-61
2022/08/21 09:59:31;;;;;;;9.10;6.30;;;;;;;31.07;52.34;99830.81;117303;1185;22897;-61
2022/08/21 10:02:27;;;;;;;9.40;6.90;;;;;;;31.36;52.17;99842.06;117281;1186;21856;-61
2022/08/21 10:05:00;;;;;;;9.50;6.90;;;;;;;31.60;52.10;99856.52;117220;1185;23027;-61
2022/08/21 10:07:29;;;;;;;8.70;6.20;;;;;;;31.71;51.85;99863.05;117064;1182;24206;-61
2022/08/21 10:10:13;;;;;;;15.70;6.70;;;;;;;31.75;51.61;99865.38;117332;1185;21848;-61
2022/08/21 10:12:56;;;;;;;8.70;6.00;;;;;;;31.74;51.62;99862.42;117311;1185;22081;-61
2022/08/21 10:15:45;;;;;;;9.60;7.00;;;;;;;31.68;51.62;99857.56;117311;1188;21860;-61
2022/08/21 10:18:22;;;;;;;9.40;6.10;;;;;;;31.57;51.63;99869.89;117168;1190;21868;-61
2022/08/21 10:21:02;;;;;;;8.90;6.20;;;;;;;31.44;51.66;99884.32;117291;1185;21946;-61
2022/08/21 10:23:41;;;;;;;9.30;6.20;;;;;;;31.36;51.65;99885.73;117304;1182;23557;-61
2022/08/21 10:26:25;;;;;;;8.60;6.20;;;;;;;31.28;51.74;99881.46;117271;1185;22898;-67
2022/08/21 10:29:10;;;;;;;7.00;6.30;;;;;;;31.15;52.06;99891.37;117215;1186;22068;-61
2022/08/21 10:31:46;;;;;;;9.70;6.40;;;;;;;30.91;52.45;99910.02;117276;1186;23567;-68
2022/08/21 10:34:23;;;;;;;6.80;5.20;;;;;;;30.38;51.69;99914.75;117301;1186;22926;-67
2022/08/21 10:37:18;;;;;;;6.90;4.70;;;;;;;29.77;51.47;99917.27;117654;1181;22916;-67
2022/08/21 10:39:53;;;;;;;8.10;5.30;;;;;;;29.25;51.88;99921.55;117274;1186;21861;-61
2022/08/21 10:42:59;;;;;;;8.80;5.20;;;;;;;28.85;52.69;99918.92;117266;1187;21886;-67
2022/08/21 10:45:48;;;;;;;7.20;5.50;;;;;;;28.57;53.23;99914.66;117129;1185;21954;-61
2022/08/21 10:48:47;;;;;;;7.80;5.80;;;;;;;28.50;53.56;99920.60;117274;1183;23559;-61
2022/08/21 10:51:25;;;;;;;7.20;3.80;;;;;;;28.25;53.98;99931.73;117156;1182;21863;-68
2022/08/21 10:54:15;;;;;;;4.50;3.10;;;;;;;27.88;53.86;99937.89;117326;1186;22992;-68
2022/08/21 10:56:50;;;;;;;6.50;3.70;;;;;;;27.54;54.12;99932.33;117219;1186;23504;-61
2022/08/21 10:59:51;;;;;;;8.20;4.60;;;;;;;27.23;54.07;99924.08;117208;1186;23557;-61
2022/08/21 11:02:40;;;;;;;8.40;4.30;;;;;;;26.92;54.33;99923.90;117323;1185;24264;-67
2022/08/21 11:05:14;;;;;;;8.40;4.50;;;;;;;26.71;54.74;99926.23;117340;1185;22625;-67
2022/08/21 11:08:12;;;;;;;6.30;4.10;;;;;;;26.62;54.84;99922.77;117116;1187;21867;-67
2022/08/21 11:10:49;;;;;;;9.40;4.60;;;;;;;26.57;54.95;99918.39;117338;1186;21865;-68
2022/08/21 11:13:51;;;;;;;8.50;4.50;;;;;;;26.58;54.65;99912.95;117143;1187;22950;-67
2022/08/21 11:16:41;;;;;;;7.90;4.40;;;;;;;26.53;54.90;99903.83;117133;1185;23560;-61
2022/08/21 11:19:20;;;;;;;7.40;4.70;;;;;;;26.54;55.06;99895.29;117252;1185;21891;-66
2022/08/21 11:22:02;;;;;;;6.50;4.60;;;;;;;26.64;55.13;99888.92;117270;1183;21831;-61
2022/08/21 11:24:44;;;;;;;7.80;4.60;;;;;;;26.79;55.14;99875.84;117229;1186;23558;-61
2022/08/21 11:27:33;;;;;;;5.80;3.90;;;;;;;26.96;55.14;99866.45;117108;1187;21859;-67
2022/08/21 11:30:00;;;;;;;10.20;4.40;;;;;;;27.13;55.23;99863.92;117235;1186;22926;-67
2022/08/21 11:32:36;;;;;;;6.60;4.40;;;;;;;27.25;55.32;99872.34;117182;1183;23582;-67
2022/08/21 11:35:13;;;;;;;6.80;4.80;;;;;;;27.32;55.26;99874.43;117118;1184;21995;-67